Time;durP1;ratioP1;P1;durP2;ratioP2;P2;SDS_P1;SDS_P2;PMS_P1;PMS_P2;Temp;Humidity;BMP_temperature;BMP_pressure;BME280_temperature;BME280_humidity;BME280_pressure;Samples;Min_cycle;Max_cycle;Signal;HPM_P1;HPM_P2
2023/03/24 00:00:12;;;;;;;43.58;26.52;;;12.90;98.90;;;;;;4995047;28;20034;-73
2023/03/24 00:02:41;;;;;;;39.17;24.58;;;12.80;99.10;;;;;;4970078;28;20043;-72
2023/03/24 00:05:15;;;;;;;42.05;26.40;;;12.70;99.40;;;;;;4979981;28;20034;-74
2023/03/24 00:07:42;;;;;;;50.13;27.75;;;12.60;99.30;;;;;;4970546;28;20023;-73
2023/03/24 00:10:13;;;;;;;48.03;28.52;;;12.60;99.60;;;;;;4989115;28;20065;-73
2023/03/24 00:12:41;;;;;;;46.80;30.42;;;12.50;99.90;;;;;;4983367;28;20026;-73
2023/03/24 00:15:10;;;;;;;38.50;26.92;;;12.70;99.90;;;;;;4987834;28;20129;-73
2023/03/24 00:17:38;;;;;;;43.85;27.40;;;12.80;99.30;;;;;;4985195;28;20511;-72
2023/03/24 00:20:06;;;;;;;46.33;29.92;;;12.70;99.80;;;;;;4978351;28;20027;-72
2023/03/24 00:22:33;;;;;;;44.67;28.45;;;12.70;99.90;;;;;;4984309;28;20081;-72
2023/03/24 00:25:02;;;;;;;46.30;30.20;;;12.70;99.90;;;;;;4967861;28;20392;-72
2023/03/24 00:27:29;;;;;;;43.47;28.02;;;12.80;99.90;;;;;;4986977;28;20027;-72
2023/03/24 00:29:57;;;;;;;45.67;28.48;;;12.70;99.90;;;;;;4987032;28;20041;-72
2023/03/24 00:32:24;;;;;;;45.58;28.85;;;12.60;99.90;;;;;;4980715;28;20108;-72
2023/03/24 00:34:51;;;;;;;48.80;30.67;;;12.80;99.90;;;;;;4968535;28;20042;-72
2023/03/24 00:37:17;;;;;;;46.50;29.92;;;12.80;99.90;;;;;;4995582;28;20118;-73
2023/03/24 00:39:42;;;;;;;47.50;31.70;;;12.80;99.90;;;;;;4987976;28;20111;-72
2023/03/24 00:42:08;;;;;;;47.40;30.27;;;12.80;99.90;;;;;;4984741;28;20045;-72
2023/03/24 00:44:36;;;;;;;50.75;29.98;;;12.80;99.90;;;;;;4986209;28;20109;-72
2023/03/24 00:47:02;;;;;;;44.25;26.60;;;12.80;99.90;;;;;;4983717;28;20030;-72
2023/03/24 00:49:43;;;;;;;47.95;30.10;;;12.70;99.80;;;;;;4984596;28;20034;-73
2023/03/24 00:52:16;;;;;;;44.97;29.25;;;12.60;99.90;;;;;;4986256;28;20489;-72
2023/03/24 00:54:44;;;;;;;57.93;28.93;;;12.40;99.90;;;;;;4988381;28;20026;-73
2023/03/24 00:57:20;;;;;;;47.08;27.65;;;12.50;99.90;;;;;;4985710;28;20133;-72
2023/03/24 00:59:48;;;;;;;47.65;28.08;;;12.50;99.90;;;;;;4981649;28;20109;-72
2023/03/24 01:02:18;;;;;;;49.63;29.15;;;12.50;99.90;;;;;;4986685;28;20065;-72
2023/03/24 01:04:46;;;;;;;48.13;30.40;;;12.60;99.90;;;;;;4987731;28;20041;-73
2023/03/24 01:07:16;;;;;;;40.90;27.10;;;12.40;99.90;;;;;;4985835;28;20137;-72
2023/03/24 01:09:45;;;;;;;47.30;28.58;;;12.40;99.90;;;;;;4988898;28;20019;-73
2023/03/24 01:12:11;;;;;;;46.88;28.92;;;12.40;99.90;;;;;;4987053;28;20034;-72
2023/03/24 01:14:36;;;;;;;42.78;28.05;;;12.40;99.90;;;;;;4985144;28;20031;-73
2023/03/24 01:17:02;;;;;;;44.53;27.50;;;12.50;99.90;;;;;;4985075;28;20482;-72
2023/03/24 01:19:28;;;;;;;46.17;27.85;;;12.40;99.90;;;;;;4984161;28;20030;-72
2023/03/24 01:21:54;;;;;;;42.13;25.98;;;12.30;99.90;;;;;;4992052;28;20038;-72
2023/03/24 01:24:24;;;;;;;43.22;27.88;;;12.40;99.80;;;;;;4987266;28;20034;-72
2023/03/24 01:26:50;;;;;;;38.38;25.25;;;12.40;99.90;;;;;;4986553;28;20039;-72
2023/03/24 01:29:16;;;;;;;45.00;26.45;;;12.30;99.90;;;;;;4986762;28;20094;-72
2023/03/24 01:31:41;;;;;;;40.97;26.80;;;12.30;99.90;;;;;;4985771;28;20030;-72
2023/03/24 01:34:07;;;;;;;39.75;26.05;;;12.30;99.90;;;;;;4984930;28;20034;-72
2023/03/24 01:36:33;;;;;;;47.25;26.70;;;12.30;99.90;;;;;;4981488;28;20089;-72
2023/03/24 01:39:00;;;;;;;39.05;26.33;;;12.40;99.90;;;;;;4983637;28;20477;-73
2023/03/24 01:41:34;;;;;;;42.78;27.13;;;12.40;99.90;;;;;;4988641;28;20034;-72
2023/03/24 01:44:01;;;;;;;39.05;24.45;;;12.40;99.90;;;;;;4983020;28;20066;-73
2023/03/24 01:46:28;;;;;;;36.90;22.00;;;12.40;99.90;;;;;;4987837;28;20034;-72
2023/03/24 01:48:58;;;;;;;35.80;22.65;;;12.20;99.70;;;;;;4981119;28;20085;-72
2023/03/24 01:51:35;;;;;;;42.50;25.60;;;12.10;99.90;;;;;;4982522;28;20061;-72
2023/03/24 01:54:41;;;;;;;41.13;24.38;;;12.10;99.90;;;;;;4987232;28;20463;-72
2023/03/24 01:57:39;;;;;;;40.20;24.40;;;12.00;99.90;;;;;;4976882;28;20094;-72
2023/03/24 02:00:11;;;;;;;40.75;24.55;;;11.90;99.90;;;;;;4983121;28;20042;-72
2023/03/24 02:02:41;;;;;;;42.60;27.95;;;11.90;99.90;;;;;;4979680;28;20073;-72
2023/03/24 02:05:10;;;;;;;43.00;27.08;;;11.90;99.90;;;;;;4986942;28;20404;-72
2023/03/24 02:07:53;;;;;;;40.67;26.63;;;11.90;99.90;;;;;;4986103;28;20022;-72
2023/03/24 02:10:21;;;;;;;44.88;27.05;;;11.90;99.90;;;;;;4982355;28;20030;-73
2023/03/24 02:12:46;;;;;;;43.95;27.65;;;12.00;99.90;;;;;;4984290;28;20038;-72
2023/03/24 02:15:15;;;;;;;43.17;25.60;;;12.00;99.90;;;;;;4985347;28;20022;-72
2023/03/24 02:17:47;;;;;;;38.58;24.05;;;12.00;99.90;;;;;;4985117;28;20435;-72
2023/03/24 02:21:04;;;;;;;42.78;26.40;;;11.90;99.90;;;;;;4980838;28;20033;-72
2023/03/24 02:24:06;;;;;;;39.45;25.15;;;11.70;99.90;;;;;;4958402;28;20042;-73
2023/03/24 02:26:51;;;;;;;39.45;25.67;;;11.80;99.90;;;;;;4982980;28;20022;-72
2023/03/24 02:29:41;;;;;;;42.17;25.92;;;11.70;99.90;;;;;;4984900;28;20469;-72
2023/03/24 02:32:36;;;;;;;41.63;25.40;;;11.80;99.90;;;;;;4982304;28;20027;-73
2023/03/24 02:35:20;;;;;;;42.28;25.85;;;11.70;99.90;;;;;;4979653;28;20035;-72
2023/03/24 02:38:04;;;;;;;38.17;24.07;;;11.70;99.90;;;;;;4986629;28;20121;-72
2023/03/24 02:40:32;;;;;;;38.10;25.17;;;11.70;99.90;;;;;;4980647;28;20787;-72
2023/03/24 02:43:43;;;;;;;45.92;27.73;;;11.60;99.90;;;;;;4983694;28;20038;-72
2023/03/24 02:46:20;;;;;;;38.97;25.58;;;11.70;99.90;;;;;;4943781;28;20577;-73
2023/03/24 02:49:06;;;;;;;42.60;26.00;;;11.60;99.90;;;;;;4945171;28;20023;-73
2023/03/24 02:51:34;;;;;;;39.17;24.42;;;11.50;99.90;;;;;;4968215;28;20043;-73
2023/03/24 02:54:19;;;;;;;42.88;24.60;;;11.60;99.90;;;;;;4981318;28;20056;-72
2023/03/24 02:56:53;;;;;;;45.10;27.23;;;11.50;99.90;;;;;;4983962;28;20030;-72
2023/03/24 02:59:31;;;;;;;42.22;25.05;;;11.50;99.90;;;;;;4987268;28;20026;-72
2023/03/24 03:02:02;;;;;;;39.35;24.70;;;11.40;99.90;;;;;;4983273;28;20035;-72
2023/03/24 03:04:33;;;;;;;38.30;23.73;;;11.40;99.90;;;;;;4984489;28;20440;-72
2023/03/24 03:07:08;;;;;;;39.67;25.23;;;11.40;99.90;;;;;;4981048;28;20049;-72
2023/03/24 03:09:42;;;;;;;40.33;26.85;;;11.40;99.90;;;;;;4988992;28;20537;-72
2023/03/24 03:12:11;;;;;;;39.30;25.20;;;11.60;99.90;;;;;;4988262;28;20089;-72
2023/03/24 03:15:02;;;;;;;41.28;24.60;;;11.50;99.90;;;;;;4984157;28;20085;-72
2023/03/24 03:17:34;;;;;;;44.63;26.48;;;11.50;99.90;;;;;;4985327;28;20034;-72
2023/03/24 03:20:07;;;;;;;42.90;25.58;;;11.40;99.90;;;;;;4987218;28;20105;-72
2023/03/24 03:22:48;;;;;;;41.15;26.05;;;11.40;99.90;;;;;;4983828;28;20125;-72
2023/03/24 03:25:19;;;;;;;41.55;25.38;;;11.30;99.90;;;;;;4987573;28;20026;-72
2023/03/24 03:27:45;;;;;;;41.92;24.20;;;11.40;99.90;;;;;;4980354;28;20041;-72
2023/03/24 03:30:28;;;;;;;38.90;23.95;;;11.30;99.90;;;;;;4980702;28;20030;-72
2023/03/24 03:33:24;;;;;;;42.88;25.40;;;11.30;99.90;;;;;;4979369;28;20495;-72
2023/03/24 03:36:13;;;;;;;48.33;24.30;;;11.50;99.90;;;;;;4985272;28;20034;-73
2023/03/24 03:38:59;;;;;;;36.85;22.92;;;11.50;99.90;;;;;;4991044;28;20030;-72
2023/03/24 03:41:25;;;;;;;44.03;25.40;;;11.30;99.90;;;;;;4982109;28;20428;-72
2023/03/24 03:43:52;;;;;;;36.35;23.83;;;11.30;99.90;;;;;;4981235;28;20039;-72
2023/03/24 03:46:17;;;;;;;42.85;25.10;;;11.30;99.90;;;;;;4983147;28;20425;-72
2023/03/24 03:48:44;;;;;;;46.70;27.38;;;11.40;99.90;;;;;;4980585;28;20149;-72
2023/03/24 03:51:11;;;;;;;39.25;25.40;;;11.40;99.90;;;;;;4987147;28;20121;-72
2023/03/24 03:53:53;;;;;;;35.20;22.35;;;11.40;99.90;;;;;;4979935;28;20877;-72
2023/03/24 03:56:22;;;;;;;35.20;22.25;;;11.30;99.90;;;;;;4986471;28;20030;-72
2023/03/24 03:58:48;;;;;;;36.47;20.80;;;11.30;99.90;;;;;;4985581;28;20027;-72
2023/03/24 04:01:18;;;;;;;34.65;22.27;;;11.20;99.90;;;;;;4985480;28;20027;-71
2023/03/24 04:04:06;;;;;;;40.05;21.73;;;11.00;99.90;;;;;;4984251;28;20065;-71
2023/03/24 04:06:52;;;;;;;40.55;25.15;;;11.00;99.90;;;;;;4984372;28;20116;-71
2023/03/24 04:09:29;;;;;;;43.38;25.25;;;11.00;99.90;;;;;;4984325;28;20113;-71
2023/03/24 04:12:10;;;;;;;41.53;25.52;;;11.20;99.90;;;;;;4979303;28;20030;-71
2023/03/24 04:15:09;;;;;;;46.60;27.92;;;11.20;99.90;;;;;;4980063;28;20029;-72
2023/03/24 04:17:41;;;;;;;37.55;24.20;;;11.30;99.90;;;;;;4982109;28;20559;-71
2023/03/24 04:20:13;;;;;;;38.10;22.75;;;11.30;99.90;;;;;;4977412;28;20034;-71
2023/03/24 04:23:13;;;;;;;48.10;23.42;;;11.20;99.90;;;;;;4980947;28;20477;-71
2023/03/24 04:26:05;;;;;;;39.55;25.73;;;11.10;99.90;;;;;;4982410;28;20162;-71
2023/03/24 04:28:38;;;;;;;44.22;26.60;;;11.10;99.90;;;;;;4982277;28;20041;-71
2023/03/24 04:31:15;;;;;;;44.10;26.48;;;11.20;99.90;;;;;;4978887;28;20089;-71
2023/03/24 04:33:40;;;;;;;46.08;27.85;;;11.20;99.90;;;;;;4985752;28;20089;-72
2023/03/24 04:36:33;;;;;;;47.92;28.35;;;11.00;99.90;;;;;;4973625;28;20039;-72
2023/03/24 04:39:00;;;;;;;43.85;27.27;;;11.10;99.90;;;;;;4977006;28;20027;-72
2023/03/24 04:41:29;;;;;;;43.47;26.13;;;11.10;99.90;;;;;;4978525;28;20038;-71
2023/03/24 04:43:56;;;;;;;43.60;26.63;;;11.10;99.90;;;;;;4984126;28;20038;-72
2023/03/24 04:46:23;;;;;;;43.78;27.27;;;11.10;99.90;;;;;;4986881;28;20030;-72
2023/03/24 04:48:49;;;;;;;44.72;27.08;;;11.10;99.90;;;;;;4988067;28;20531;-73
2023/03/24 04:51:17;;;;;;;50.15;27.35;;;11.10;99.90;;;;;;4974411;28;20048;-72
2023/03/24 04:53:44;;;;;;;45.85;28.35;;;11.10;99.90;;;;;;4978498;28;20108;-73
2023/03/24 04:56:27;;;;;;;50.33;28.10;;;11.10;99.90;;;;;;4982225;28;20489;-72
2023/03/24 04:58:52;;;;;;;46.30;28.50;;;11.10;99.90;;;;;;4975276;28;20038;-73
2023/03/24 05:01:21;;;;;;;48.47;28.50;;;11.10;99.90;;;;;;4977968;28;20034;-73
2023/03/24 05:03:48;;;;;;;37.63;23.55;;;11.10;99.90;;;;;;4987733;28;20035;-72
2023/03/24 05:06:15;;;;;;;45.35;28.13;;;11.00;99.90;;;;;;4974780;28;20026;-73
2023/03/24 05:08:41;;;;;;;47.92;28.00;;;11.00;99.90;;;;;;4978610;28;20113;-73
2023/03/24 05:11:07;;;;;;;45.47;27.60;;;11.00;99.90;;;;;;4983411;28;20176;-73
2023/03/24 05:13:32;;;;;;;48.28;28.38;;;10.90;99.90;;;;;;4988331;28;20042;-72
2023/03/24 05:15:58;;;;;;;47.45;28.75;;;10.90;99.90;;;;;;4980314;28;20022;-73
2023/03/24 05:18:24;;;;;;;45.03;27.08;;;10.90;99.90;;;;;;4994222;28;20036;-73
2023/03/24 05:20:50;;;;;;;44.72;26.77;;;10.90;99.90;;;;;;4997271;28;20133;-73
2023/03/24 05:23:16;;;;;;;47.50;27.98;;;11.10;99.90;;;;;;4991941;28;20142;-73
2023/03/24 05:25:42;;;;;;;42.38;28.73;;;11.10;99.90;;;;;;4979110;28;20507;-72
2023/03/24 05:28:07;;;;;;;49.75;28.90;;;11.10;99.90;;;;;;4975612;28;20031;-73
2023/03/24 05:30:33;;;;;;;48.75;26.77;;;11.20;99.90;;;;;;4971958;28;20041;-73
2023/03/24 05:32:59;;;;;;;43.97;26.75;;;11.00;99.90;;;;;;4977017;28;20030;-72
2023/03/24 05:35:25;;;;;;;46.42;28.73;;;11.00;99.90;;;;;;4979417;28;20137;-73
2023/03/24 05:37:51;;;;;;;46.40;29.00;;;11.20;99.90;;;;;;4987405;28;20122;-73
2023/03/24 05:40:16;;;;;;;45.00;27.17;;;11.20;99.90;;;;;;4981970;28;20026;-73
2023/03/24 05:42:42;;;;;;;48.70;30.02;;;11.20;99.90;;;;;;4981245;28;20039;-73
2023/03/24 05:45:10;;;;;;;45.65;27.33;;;11.30;99.90;;;;;;4987373;28;20460;-72
2023/03/24 05:47:36;;;;;;;44.85;27.55;;;11.10;99.90;;;;;;4982712;28;20116;-73
2023/03/24 05:50:02;;;;;;;50.33;29.85;;;11.20;99.90;;;;;;4985169;28;20485;-73
2023/03/24 05:52:27;;;;;;;50.65;28.10;;;11.20;99.90;;;;;;4979158;28;20035;-73
2023/03/24 05:54:53;;;;;;;43.42;28.65;;;11.20;99.90;;;;;;4975279;28;20037;-73
2023/03/24 05:57:20;;;;;;;46.75;29.17;;;11.30;99.90;;;;;;4977659;28;20054;-72
2023/03/24 05:59:45;;;;;;;49.30;28.13;;;11.40;99.90;;;;;;4974332;28;20038;-74
2023/03/24 06:02:11;;;;;;;44.70;28.63;;;11.40;99.90;;;;;;4991926;28;20048;-72
2023/03/24 06:04:37;;;;;;;42.35;27.50;;;11.30;99.90;;;;;;4992424;28;20040;-73
2023/03/24 06:07:03;;;;;;;38.38;25.75;;;11.30;99.90;;;;;;4979500;28;20495;-73
2023/03/24 06:09:36;;;;;;;43.63;25.38;;;11.40;99.90;;;;;;4989162;28;20041;-72
2023/03/24 06:12:03;;;;;;;38.83;24.60;;;11.40;99.90;;;;;;4990715;28;20229;-73
2023/03/24 06:14:29;;;;;;;40.17;25.70;;;11.20;99.90;;;;;;4985545;28;20041;-73
2023/03/24 06:16:58;;;;;;;42.83;26.05;;;11.10;99.90;;;;;;4996742;28;20042;-73
2023/03/24 06:19:24;;;;;;;38.95;25.13;;;11.30;99.90;;;;;;4990761;28;20026;-72
2023/03/24 06:21:50;;;;;;;41.00;26.63;;;11.30;99.90;;;;;;4983813;28;20034;-73
2023/03/24 06:24:16;;;;;;;41.13;24.98;;;11.30;99.90;;;;;;4989504;28;20049;-73
2023/03/24 06:26:43;;;;;;;39.45;23.77;;;11.40;99.90;;;;;;4990648;28;20155;-74
2023/03/24 06:29:09;;;;;;;36.80;23.35;;;11.30;99.90;;;;;;4995379;28;20045;-74
2023/03/24 06:31:36;;;;;;;41.63;26.38;;;11.40;99.90;;;;;;4985262;28;20030;-73
2023/03/24 06:34:03;;;;;;;50.13;25.48;;;11.60;99.90;;;;;;4972787;28;20034;-73
2023/03/24 06:36:28;;;;;;;41.08;26.85;;;11.70;99.90;;;;;;4988825;28;20065;-73
2023/03/24 06:38:55;;;;;;;43.90;24.05;;;11.80;99.90;;;;;;4974086;28;20065;-73
2023/03/24 06:41:21;;;;;;;37.50;25.17;;;11.90;99.90;;;;;;4980733;28;20373;-72
2023/03/24 06:43:47;;;;;;;35.00;22.77;;;11.90;99.90;;;;;;4987765;28;20048;-71
2023/03/24 06:46:12;;;;;;;39.97;25.35;;;11.90;99.90;;;;;;4986832;28;20034;-73
2023/03/24 06:48:38;;;;;;;35.45;23.85;;;11.80;99.90;;;;;;4978927;28;20030;-75
2023/03/24 06:51:05;;;;;;;42.65;25.55;;;11.90;99.90;;;;;;4985342;28;20026;-75
2023/03/24 06:53:30;;;;;;;36.70;23.80;;;12.00;99.90;;;;;;4981617;28;20038;-73
2023/03/24 06:55:56;;;;;;;41.55;23.58;;;12.20;99.90;;;;;;4981729;28;20073;-74
2023/03/24 06:58:21;;;;;;;37.70;22.40;;;12.30;99.90;;;;;;4975346;28;20034;-73
2023/03/24 07:00:47;;;;;;;35.28;23.05;;;12.30;99.90;;;;;;4976734;28;20073;-74
2023/03/24 07:03:15;;;;;;;39.72;25.30;;;12.30;99.90;;;;;;4973361;28;20041;-74
2023/03/24 07:05:43;;;;;;;39.13;24.25;;;12.40;99.90;;;;;;4977403;28;20034;-74
2023/03/24 07:08:10;;;;;;;36.75;22.75;;;12.30;99.90;;;;;;4979316;28;20138;-73
2023/03/24 07:10:38;;;;;;;38.35;23.88;;;12.30;99.90;;;;;;4976113;28;20041;-73
2023/03/24 07:13:05;;;;;;;37.83;23.35;;;12.20;99.90;;;;;;4977848;28;20061;-73
2023/03/24 07:15:31;;;;;;;37.45;24.05;;;12.30;99.90;;;;;;4975131;28;20023;-71
2023/03/24 07:17:57;;;;;;;41.35;24.17;;;12.30;99.90;;;;;;4978177;28;20091;-72
2023/03/24 07:20:23;;;;;;;39.22;23.40;;;12.40;99.90;;;;;;4981449;28;20026;-73
2023/03/24 07:22:49;;;;;;;40.92;26.67;;;12.40;99.90;;;;;;4974475;28;20078;-71
2023/03/24 07:25:18;;;;;;;37.30;25.08;;;12.50;99.90;;;;;;4982539;28;20030;-72
2023/03/24 07:27:45;;;;;;;45.60;26.83;;;12.50;99.90;;;;;;4986485;28;20027;-72
2023/03/24 07:30:12;;;;;;;44.78;27.85;;;12.60;99.90;;;;;;4979863;28;20030;-71
2023/03/24 07:32:38;;;;;;;40.17;23.52;;;12.60;99.90;;;;;;4983815;28;20034;-71
2023/03/24 07:35:06;;;;;;;34.20;23.55;;;12.50;99.90;;;;;;4972156;28;20030;-71
2023/03/24 07:37:33;;;;;;;37.70;22.48;;;12.40;99.90;;;;;;4978299;28;20029;-72
2023/03/24 07:39:59;;;;;;;38.97;23.33;;;12.50;99.90;;;;;;4997326;28;20026;-74
2023/03/24 07:42:25;;;;;;;39.45;24.52;;;12.60;99.90;;;;;;4978167;28;20392;-74
2023/03/24 07:44:51;;;;;;;35.25;22.23;;;12.50;99.90;;;;;;4976605;28;20046;-73
2023/03/24 07:47:17;;;;;;;38.28;22.95;;;12.50;99.90;;;;;;4971760;28;20036;-73
2023/03/24 07:49:43;;;;;;;41.20;22.60;;;12.50;99.90;;;;;;4966765;28;20034;-74
2023/03/24 07:52:08;;;;;;;38.60;22.90;;;12.50;99.90;;;;;;4973040;28;20031;-73
2023/03/24 07:54:34;;;;;;;39.63;23.98;;;12.40;99.90;;;;;;4981397;28;20038;-74
2023/03/24 07:57:00;;;;;;;39.53;23.17;;;12.40;99.90;;;;;;4992037;28;20057;-73
2023/03/24 07:59:26;;;;;;;36.05;21.60;;;12.40;99.90;;;;;;4984073;28;20065;-74
2023/03/24 08:01:52;;;;;;;40.53;21.88;;;12.10;99.90;;;;;;4968427;28;20431;-74
2023/03/24 08:04:18;;;;;;;34.95;21.67;;;12.00;99.90;;;;;;4985677;28;20069;-73
2023/03/24 08:06:44;;;;;;;36.47;21.55;;;12.10;99.90;;;;;;4974270;28;20897;-74
2023/03/24 08:09:10;;;;;;;32.25;20.83;;;12.10;99.90;;;;;;4995605;28;20026;-74
2023/03/24 08:11:36;;;;;;;34.90;22.05;;;12.30;99.90;;;;;;4986682;28;20088;-75
2023/03/24 08:14:02;;;;;;;39.22;24.75;;;12.50;99.90;;;;;;4978919;28;20043;-73
2023/03/24 08:16:28;;;;;;;38.05;24.77;;;12.60;99.90;;;;;;4972464;28;20041;-73
2023/03/24 08:18:57;;;;;;;34.67;23.45;;;12.70;99.90;;;;;;4974484;28;20031;-70
2023/03/24 08:21:23;;;;;;;35.28;23.02;;;12.90;99.90;;;;;;4993364;28;20034;-70
2023/03/24 08:23:49;;;;;;;32.97;23.02;;;12.90;99.90;;;;;;4981379;28;20097;-70
2023/03/24 08:26:15;;;;;;;33.85;23.50;;;12.90;99.90;;;;;;4985313;28;20030;-71
2023/03/24 08:28:41;;;;;;;39.03;23.65;;;12.80;99.90;;;;;;4979788;28;20500;-70
2023/03/24 08:31:07;;;;;;;38.97;24.20;;;12.80;99.90;;;;;;4963852;28;20053;-71
2023/03/24 08:33:34;;;;;;;34.30;24.08;;;12.70;99.90;;;;;;4977395;28;20670;-71
2023/03/24 08:36:00;;;;;;;37.17;23.33;;;12.60;99.90;;;;;;4966627;28;20053;-71
2023/03/24 08:38:30;;;;;;;39.75;25.52;;;12.60;99.90;;;;;;4988704;28;20069;-70
2023/03/24 08:41:00;;;;;;;39.35;24.17;;;12.60;99.90;;;;;;4975952;28;20037;-72
2023/03/24 08:43:28;;;;;;;31.88;22.17;;;12.60;99.90;;;;;;4989809;28;20037;-71
2023/03/24 08:45:56;;;;;;;33.97;22.38;;;12.50;99.90;;;;;;4993915;28;20054;-72
2023/03/24 08:48:22;;;;;;;36.15;23.05;;;12.50;99.90;;;;;;4979291;28;20157;-71
2023/03/24 08:50:48;;;;;;;33.65;23.45;;;12.50;99.90;;;;;;4997453;28;20033;-71
2023/03/24 08:53:14;;;;;;;39.22;25.00;;;12.70;99.90;;;;;;4992321;28;20034;-70
2023/03/24 08:55:42;;;;;;;36.00;22.95;;;12.80;99.90;;;;;;4980264;28;20065;-72
2023/03/24 08:58:16;;;;;;;34.95;22.48;;;12.90;99.90;;;;;;4995881;28;20030;-71
2023/03/24 09:00:43;;;;;;;38.92;22.45;;;12.80;99.90;;;;;;4981427;28;20631;-71
2023/03/24 09:03:13;;;;;;;39.67;23.90;;;12.90;99.90;;;;;;4979918;28;20034;-70
2023/03/24 09:05:39;;;;;;;42.63;22.80;;;13.00;99.90;;;;;;4981518;28;20038;-71
2023/03/24 09:08:06;;;;;;;31.02;21.83;;;13.20;99.90;;;;;;4979946;28;20030;-71
2023/03/24 09:10:32;;;;;;;32.72;20.33;;;13.20;99.90;;;;;;4987070;28;20769;-71
2023/03/24 09:12:58;;;;;;;31.15;20.35;;;13.10;99.90;;;;;;4979339;28;20109;-72
2023/03/24 09:15:24;;;;;;;36.75;21.77;;;13.00;99.90;;;;;;4984234;28;20034;-71
2023/03/24 09:17:50;;;;;;;36.67;22.02;;;13.00;99.90;;;;;;4976797;28;20459;-72
2023/03/24 09:20:17;;;;;;;37.80;24.52;;;13.10;99.90;;;;;;4981152;28;20038;-72
2023/03/24 09:22:45;;;;;;;41.70;24.75;;;13.20;99.90;;;;;;4988550;28;20038;-71
2023/03/24 09:25:14;;;;;;;41.95;26.38;;;13.30;99.90;;;;;;4986601;28;20050;-71
2023/03/24 09:27:40;;;;;;;38.78;26.40;;;13.60;99.90;;;;;;4998817;28;20109;-72
2023/03/24 09:30:06;;;;;;;33.72;22.63;;;13.70;99.60;;;;;;4981301;28;20547;-71
2023/03/24 09:32:32;;;;;;;34.10;21.52;;;13.70;99.10;;;;;;4977636;28;20022;-71
2023/03/24 09:34:59;;;;;;;35.97;24.08;;;13.80;99.30;;;;;;4977178;28;20037;-73
2023/03/24 09:37:28;;;;;;;39.33;23.73;;;14.00;98.60;;;;;;4975334;28;20045;-72
2023/03/24 09:39:54;;;;;;;36.25;25.92;;;14.10;98.70;;;;;;4983135;28;20067;-72
2023/03/24 09:42:27;;;;;;;36.78;23.75;;;14.10;98.90;;;;;;4981562;28;20461;-72
2023/03/24 09:44:56;;;;;;;34.08;22.95;;;14.20;98.90;;;;;;4966012;28;20043;-72
2023/03/24 09:47:35;;;;;;;35.92;21.17;;;14.30;98.90;;;;;;4993113;28;20388;-72
2023/03/24 09:50:05;;;;;;;40.05;22.20;;;14.50;98.70;;;;;;4982663;28;20030;-72
2023/03/24 09:52:38;;;;;;;32.50;21.80;;;14.50;98.60;;;;;;4990206;28;20471;-72
2023/03/24 09:55:05;;;;;;;39.35;23.60;;;14.50;98.60;;;;;;4984387;28;20080;-71
2023/03/24 09:57:38;;;;;;;33.22;21.73;;;14.40;98.70;;;;;;4985809;28;20037;-71
2023/03/24 10:00:18;;;;;;;31.60;22.20;;;14.20;98.60;;;;;;4985782;28;20039;-72
2023/03/24 10:02:44;;;;;;;33.97;21.63;;;14.30;98.80;;;;;;4981591;28;20038;-71
2023/03/24 10:05:32;;;;;;;33.58;22.13;;;14.30;98.80;;;;;;4977914;28;20743;-71
2023/03/24 10:08:10;;;;;;;32.40;21.13;;;14.40;98.30;;;;;;4973492;28;20015;-71
2023/03/24 10:10:44;;;;;;;33.35;21.65;;;14.30;98.70;;;;;;4968982;28;20031;-71
2023/03/24 10:13:37;;;;;;;34.70;20.52;;;14.50;98.70;;;;;;4985191;28;20620;-71
2023/03/24 10:16:17;;;;;;;34.03;21.88;;;14.40;98.70;;;;;;4980443;28;20411;-71
2023/03/24 10:18:53;;;;;;;35.45;20.95;;;14.60;98.60;;;;;;4971778;28;20029;-71
2023/03/24 10:21:23;;;;;;;33.78;21.15;;;14.60;98.40;;;;;;4986116;28;20036;-71
2023/03/24 10:23:56;;;;;;;33.13;21.25;;;14.60;98.30;;;;;;4972604;28;20092;-74
2023/03/24 10:27:23;;;;;;;32.92;20.52;;;14.70;98.40;;;;;;4981411;28;20612;-72
2023/03/24 10:29:56;;;;;;;29.30;19.48;;;15.00;97.90;;;;;;4914057;29;20051;-72
2023/03/24 10:32:26;;;;;;;33.72;21.23;;;15.40;97.80;;;;;;4918103;29;20244;-74
2023/03/24 10:34:59;;;;;;;36.28;21.83;;;15.50;97.30;;;;;;4965729;28;20054;-73
2023/03/24 10:37:29;;;;;;;39.37;22.20;;;15.30;96.80;;;;;;4974396;28;20041;-71
2023/03/24 10:39:55;;;;;;;34.03;21.25;;;15.20;97.30;;;;;;4982630;28;20034;-72
2023/03/24 10:42:25;;;;;;;38.60;21.38;;;15.20;97.10;;;;;;4994627;28;20042;-71
2023/03/24 10:44:51;;;;;;;33.22;21.35;;;15.20;97.70;;;;;;4982111;28;20053;-73
2023/03/24 10:47:29;;;;;;;36.55;21.50;;;15.20;97.50;;;;;;4965610;28;20081;-72
2023/03/24 10:50:05;;;;;;;32.70;21.38;;;15.00;97.10;;;;;;4981928;28;20041;-71
2023/03/24 10:52:39;;;;;;;33.38;22.05;;;15.10;97.20;;;;;;4977986;28;20038;-72
2023/03/24 10:55:05;;;;;;;39.28;21.13;;;15.20;97.30;;;;;;4976651;28;20455;-72
2023/03/24 10:57:31;;;;;;;33.45;22.33;;;15.20;97.40;;;;;;4985819;28;20117;-72
2023/03/24 11:00:00;;;;;;;31.80;21.85;;;15.70;96.40;;;;;;4981819;28;20030;-72
2023/03/24 11:02:31;;;;;;;30.65;21.35;;;15.60;95.90;;;;;;4993958;28;20126;-72
2023/03/24 11:05:11;;;;;;;32.90;19.75;;;15.60;95.60;;;;;;4970145;28;20449;-73
2023/03/24 11:07:40;;;;;;;40.00;22.63;;;15.70;95.70;;;;;;4967288;28;20025;-73
2023/03/24 11:10:09;;;;;;;37.53;21.95;;;15.90;96.40;;;;;;4987829;28;20030;-73
2023/03/24 11:12:38;;;;;;;34.95;21.08;;;15.90;95.70;;;;;;4987513;28;20506;-74
2023/03/24 11:15:16;;;;;;;37.78;21.90;;;16.00;95.40;;;;;;4982098;28;20106;-73
2023/03/24 11:17:42;;;;;;;35.85;21.88;;;16.10;95.10;;;;;;4971015;28;20089;-74
2023/03/24 11:20:20;;;;;;;36.67;22.92;;;16.20;95.10;;;;;;4976576;28;20439;-72
2023/03/24 11:23:03;;;;;;;31.25;22.88;;;16.30;95.50;;;;;;4981383;28;20100;-73
2023/03/24 11:25:38;;;;;;;37.20;22.65;;;16.50;95.70;;;;;;4970268;28;20603;-73
2023/03/24 11:28:15;;;;;;;34.42;22.60;;;16.90;95.80;;;;;;4973155;28;20058;-74
2023/03/24 11:30:47;;;;;;;33.33;22.70;;;17.00;95.30;;;;;;4988003;28;20502;-73
2023/03/24 11:33:21;;;;;;;37.90;21.92;;;17.10;94.80;;;;;;4969429;28;20448;-73
2023/03/24 11:35:47;;;;;;;36.42;23.80;;;16.70;94.40;;;;;;4965115;28;20031;-73
2023/03/24 11:38:19;;;;;;;37.03;22.02;;;16.70;95.40;;;;;;4982133;28;20458;-72
2023/03/24 11:41:18;;;;;;;36.15;24.13;;;16.70;94.80;;;;;;4974264;28;20031;-72
2023/03/24 11:43:45;;;;;;;35.13;22.73;;;16.80;94.90;;;;;;4974666;28;20514;-72
2023/03/24 11:46:19;;;;;;;36.75;22.42;;;17.00;95.10;;;;;;4983989;28;20057;-73
2023/03/24 11:48:56;;;;;;;35.28;23.65;;;16.90;94.60;;;;;;4989256;28;20069;-73
2023/03/24 11:51:30;;;;;;;36.65;22.08;;;17.00;94.70;;;;;;4977939;28;20049;-72
2023/03/24 11:53:58;;;;;;;36.85;24.70;;;17.30;95.10;;;;;;4971194;28;20045;-73
2023/03/24 11:56:40;;;;;;;37.90;25.42;;;17.10;94.30;;;;;;4981365;28;20023;-73
2023/03/24 11:59:38;;;;;;;40.17;24.30;;;16.80;94.60;;;;;;4973867;28;20026;-73
2023/03/24 12:02:06;;;;;;;42.35;27.25;;;16.70;95.20;;;;;;4923333;28;20066;-74
2023/03/24 12:04:37;;;;;;;38.20;23.88;;;17.10;95.00;;;;;;4980715;28;20034;-73
2023/03/24 12:07:22;;;;;;;41.45;24.85;;;17.10;94.50;;;;;;4971495;28;20112;-73
2023/03/24 12:10:06;;;;;;;35.72;25.33;;;17.20;94.50;;;;;;4973856;28;20383;-74
2023/03/24 12:12:31;;;;;;;41.03;27.00;;;17.20;95.00;;;;;;4971447;28;20026;-73
2023/03/24 12:15:07;;;;;;;37.15;22.88;;;17.20;94.80;;;;;;4962746;28;20505;-74
2023/03/24 12:17:40;;;;;;;39.63;25.08;;;17.20;95.10;;;;;;4965952;28;20035;-73
2023/03/24 12:20:20;;;;;;;33.00;23.15;;;16.90;95.00;;;;;;4973039;28;20027;-74
2023/03/24 12:23:09;;;;;;;36.13;25.95;;;16.90;95.30;;;;;;4976719;28;20035;-74
2023/03/24 12:26:13;;;;;;;39.42;25.60;;;16.90;94.70;;;;;;4974651;28;20113;-73
2023/03/24 12:28:54;;;;;;;37.05;23.45;;;16.90;95.30;;;;;;4967580;28;20038;-72
2023/03/24 12:31:31;;;;;;;39.30;24.63;;;17.10;94.50;;;;;;4982108;28;20130;-73
2023/03/24 12:34:16;;;;;;;35.78;25.23;;;17.10;94.50;;;;;;4975171;28;20615;-73
2023/03/24 12:37:06;;;;;;;40.70;24.83;;;17.20;94.40;;;;;;4986868;28;20062;-73
2023/03/24 12:39:47;;;;;;;40.38;26.25;;;17.20;94.20;;;;;;4979302;28;20068;-72
2023/03/24 12:42:15;;;;;;;39.22;24.83;;;17.10;94.70;;;;;;4974367;28;20035;-73
2023/03/24 12:44:56;;;;;;;39.80;25.05;;;17.10;94.80;;;;;;4985060;28;20412;-72
2023/03/24 12:47:47;;;;;;;36.88;25.90;;;17.10;94.80;;;;;;4974031;28;20042;-73
2023/03/24 12:50:28;;;;;;;38.88;23.65;;;17.10;94.60;;;;;;4989495;28;20036;-72